Time;durP1;ratioP1;P1;durP2;ratioP2;P2;SDS_P1;SDS_P2;PMS_P1;PMS_P2;Temp;Humidity;BMP_temperature;BMP_pressure;BME280_temperature;BME280_humidity;BME280_pressure;Samples;Min_cycle;Max_cycle;Signal;HPM_P1;HPM_P2
2022/09/26 00:00:19;;;;;;;;;;;;;;;16.38;69.50;100561.38;1020263;29;679;-71
2022/09/26 00:01:10;;;;;;;;;;;;;;;16.35;69.85;100557.16;1020897;29;843;-69
2022/09/26 00:02:00;;;;;;;;;;;;;;;16.32;69.55;100558.28;1020211;29;651;-69
2022/09/26 00:02:51;;;;;;;;;;;;;;;16.36;70.33;100555.31;1020485;29;625;-70
2022/09/26 00:03:41;;;;;;;;;;;;;;;16.30;70.17;100554.06;1020202;29;594;-70
2022/09/26 00:04:32;;;;;;;;;;;;;;;16.24;69.87;100555.47;1020351;29;667;-69
2022/09/26 00:05:22;;;;;;;;;;;;;;;16.18;68.95;100544.44;1020314;29;687;-70
2022/09/26 00:06:14;;;;;;;;;;;;;;;16.24;70.18;100547.41;1020901;29;742;-70
2022/09/26 00:07:05;;;;;;;;;;;;;;;16.31;70.17;100540.44;1019977;29;710;-70
2022/09/26 00:07:55;;;;;;;;;;;;;;;16.28;68.67;100539.91;1020786;29;682;-70
2022/09/26 00:08:46;;;;;;;;;;;;;;;16.21;69.41;100539.63;1020355;29;655;-70
2022/09/26 00:09:36;;;;;;;;;;;;;;;16.20;69.75;100543.28;1016786;29;1903;-70
2022/09/26 00:10:27;;;;;;;;;;;;;;;16.30;70.21;100538.75;1016350;29;742;-70
2022/09/26 00:11:17;;;;;;;;;;;;;;;16.25;70.02;100541.03;1017434;29;833;-70
2022/09/26 00:12:07;;;;;;;;;;;;;;;16.32;70.18;100531.38;1016324;29;663;-70
2022/09/26 00:12:58;;;;;;;;;;;;;;;16.38;69.89;100531.81;1017483;29;654;-70
2022/09/26 00:13:48;;;;;;;;;;;;;;;16.41;69.94;100531.53;1017411;29;714;-70
2022/09/26 00:14:39;;;;;;;;;;;;;;;16.42;69.90;100531.38;1016404;29;639;-70
2022/09/26 00:15:29;;;;;;;;;;;;;;;16.26;68.60;100531.97;1017451;29;541;-70
2022/09/26 00:16:20;;;;;;;;;;;;;;;16.22;69.12;100521.66;1017450;29;687;-70
2022/09/26 00:17:11;;;;;;;;;;;;;;;16.20;70.36;100532.53;1016401;29;684;-70
2022/09/26 00:18:01;;;;;;;;;;;;;;;16.05;69.27;100528.59;1017487;29;695;-70
2022/09/26 00:18:51;;;;;;;;;;;;;;;16.19;70.22;100522.78;1016417;29;624;-70
2022/09/26 00:19:42;;;;;;;;;;;;;;;16.28;70.09;100524.63;1020781;29;1717;-70
2022/09/26 00:20:32;;;;;;;;;;;;;;;16.36;69.65;100520.34;1020728;29;695;-70
2022/09/26 00:21:23;;;;;;;;;;;;;;;16.23;68.64;100512.59;1020738;29;1650;-70
2022/09/26 00:22:13;;;;;;;;;;;;;;;16.25;69.94;100511.47;1020683;29;667;-70
2022/09/26 00:23:03;;;;;;;;;;;;;;;16.33;69.68;100505.34;1020795;29;683;-70
2022/09/26 00:23:54;;;;;;;;;;;;;;;16.26;69.14;100505.09;1020827;29;710;-70
2022/09/26 00:24:44;;;;;;;;;;;;;;;16.36;69.77;100509.59;1020530;29;612;-70
2022/09/26 00:25:35;;;;;;;;;;;;;;;16.40;69.77;100500.25;1020914;29;698;-70
2022/09/26 00:26:25;;;;;;;;;;;;;;;16.30;69.99;100509.16;1020697;29;623;-70
2022/09/26 00:27:16;;;;;;;;;;;;;;;16.24;69.70;100507.06;1020710;29;797;-70
2022/09/26 00:28:06;;;;;;;;;;;;;;;16.20;69.73;100500.28;1020704;29;647;-70
2022/09/26 00:28:56;;;;;;;;;;;;;;;16.29;70.35;100496.75;1020712;29;706;-69
2022/09/26 00:29:47;;;;;;;;;;;;;;;16.29;69.14;100495.88;1025342;28;1958;-70
2022/09/26 00:30:37;;;;;;;;;;;;;;;16.18;69.08;100502.25;1024368;29;639;-71
2022/09/26 00:31:28;;;;;;;;;;;;;;;16.23;70.18;100489.25;1020866;29;650;-70
2022/09/26 00:32:18;;;;;;;;;;;;;;;16.21;69.64;100495.75;1020702;29;624;-71
2022/09/26 00:33:09;;;;;;;;;;;;;;;16.29;70.15;100487.81;1020746;29;663;-69
2022/09/26 00:33:59;;;;;;;;;;;;;;;16.20;68.91;100485.97;1021843;29;634;-69
2022/09/26 00:34:49;;;;;;;;;;;;;;;16.27;70.26;100477.22;1020731;29;710;-70
2022/09/26 00:35:40;;;;;;;;;;;;;;;16.31;69.57;100481.28;1021369;29;619;-70
2022/09/26 00:36:31;;;;;;;;;;;;;;;16.20;69.61;100483.28;1021462;29;666;-70
2022/09/26 00:37:21;;;;;;;;;;;;;;;16.26;70.07;100478.19;1020626;29;651;-70
2022/09/26 00:38:11;;;;;;;;;;;;;;;16.25;70.21;100476.50;1020740;29;631;-70
2022/09/26 00:39:02;;;;;;;;;;;;;;;16.17;68.96;100472.81;1020579;29;1659;-69
2022/09/26 00:39:52;;;;;;;;;;;;;;;16.05;70.05;100464.09;1020767;29;633;-69
2022/09/26 00:40:43;;;;;;;;;;;;;;;16.16;70.13;100468.44;1020906;29;667;-70
2022/09/26 00:41:33;;;;;;;;;;;;;;;16.21;70.25;100467.03;1020315;29;662;-70
2022/09/26 00:42:24;;;;;;;;;;;;;;;16.22;69.98;100462.50;1020621;29;608;-70
2022/09/26 00:43:14;;;;;;;;;;;;;;;16.04;69.39;100462.38;1020538;29;631;-70
2022/09/26 00:44:04;;;;;;;;;;;;;;;16.19;70.32;100455.56;1020080;29;710;-70
2022/09/26 00:44:55;;;;;;;;;;;;;;;16.22;70.07;100455.28;1020742;29;719;-70
2022/09/26 00:45:46;;;;;;;;;;;;;;;16.26;69.95;100451.31;1020626;29;695;-70
2022/09/26 00:46:36;;;;;;;;;;;;;;;16.32;69.82;100450.72;1020570;29;612;-70
2022/09/26 00:47:26;;;;;;;;;;;;;;;16.29;69.79;100455.56;1017254;29;631;-70
2022/09/26 00:48:17;;;;;;;;;;;;;;;16.29;69.78;100445.66;1016368;29;639;-70
2022/09/26 00:49:07;;;;;;;;;;;;;;;16.27;70.17;100441.41;1016147;29;632;-70
2022/09/26 00:49:58;;;;;;;;;;;;;;;16.33;69.88;100446.19;1016174;29;1893;-70
2022/09/26 00:50:48;;;;;;;;;;;;;;;16.38;70.18;100445.75;1015728;29;656;-70
2022/09/26 00:51:39;;;;;;;;;;;;;;;16.35;69.92;100446.88;1016134;29;624;-70
2022/09/26 00:52:29;;;;;;;;;;;;;;;16.36;69.96;100445.03;1016647;29;675;-69
2022/09/26 00:53:19;;;;;;;;;;;;;;;16.08;69.50;100441.44;1016199;29;679;-70
2022/09/26 00:54:10;;;;;;;;;;;;;;;16.20;70.73;100438.44;1016274;29;664;-70
2022/09/26 00:55:00;;;;;;;;;;;;;;;16.28;69.97;100427.81;1016169;29;616;-70
2022/09/26 00:55:51;;;;;;;;;;;;;;;16.17;69.28;100429.81;1016425;29;613;-70
2022/09/26 00:56:42;;;;;;;;;;;;;;;16.24;70.12;100429.09;1016097;29;695;-70
2022/09/26 00:57:32;;;;;;;;;;;;;;;16.30;70.33;100417.72;1016056;29;667;-70
2022/09/26 00:58:23;;;;;;;;;;;;;;;16.33;70.22;100420.13;1016234;29;608;-69
2022/09/26 00:59:13;;;;;;;;;;;;;;;16.39;69.70;100417.84;1016145;29;1288;-70
2022/09/26 01:00:03;;;;;;;;;;;;;;;16.40;69.64;100416.88;1020256;29;635;-70
2022/09/26 01:00:54;;;;;;;;;;;;;;;16.31;69.67;100411.38;1021341;29;646;-70
2022/09/26 01:01:45;;;;;;;;;;;;;;;16.33;69.39;100414.75;1016395;29;624;-70
2022/09/26 01:02:35;;;;;;;;;;;;;;;16.33;70.47;100414.75;1017040;29;609;-70
2022/09/26 01:03:26;;;;;;;;;;;;;;;16.30;70.13;100409.66;1017765;29;690;-70
2022/09/26 01:04:16;;;;;;;;;;;;;;;16.27;70.19;100399.22;1015967;29;733;-70
2022/09/26 01:05:07;;;;;;;;;;;;;;;16.28;70.29;100400.94;1015676;29;652;-70
2022/09/26 01:05:57;;;;;;;;;;;;;;;16.32;69.61;100388.84;1016323;29;659;-70
2022/09/26 01:06:48;;;;;;;;;;;;;;;16.35;69.94;100394.94;1016107;29;688;-70
2022/09/26 01:07:39;;;;;;;;;;;;;;;16.35;70.25;100384.19;1016192;29;663;-70
2022/09/26 01:08:30;;;;;;;;;;;;;;;16.39;69.91;100389.13;1015988;29;608;-70
2022/09/26 01:09:21;;;;;;;;;;;;;;;16.39;69.64;100385.59;1020178;29;718;-70
2022/09/26 01:10:12;;;;;;;;;;;;;;;16.40;70.03;100379.22;1021131;29;611;-70
2022/09/26 01:11:03;;;;;;;;;;;;;;;16.40;69.77;100382.75;1020804;29;698;-70
2022/09/26 01:11:53;;;;;;;;;;;;;;;16.38;69.70;100386.59;1021197;29;717;-70
2022/09/26 01:12:43;;;;;;;;;;;;;;;16.41;69.48;100372.84;1019444;29;631;-70
2022/09/26 01:13:34;;;;;;;;;;;;;;;16.35;69.92;100386.88;1019627;29;559;-70
2022/09/26 01:14:24;;;;;;;;;;;;;;;16.39;69.98;100385.59;1021136;29;639;-70
2022/09/26 01:15:15;;;;;;;;;;;;;;;16.30;69.85;100382.78;1021185;29;697;-70
2022/09/26 01:16:05;;;;;;;;;;;;;;;16.21;69.63;100382.84;1021013;29;658;-70
2022/09/26 01:16:56;;;;;;;;;;;;;;;16.15;70.95;100380.72;1016192;29;627;-70
2022/09/26 01:17:46;;;;;;;;;;;;;;;16.05;68.65;100375.38;1016399;29;627;-70
2022/09/26 01:18:36;;;;;;;;;;;;;;;16.20;70.50;100379.28;1020499;29;671;-70
2022/09/26 01:19:27;;;;;;;;;;;;;;;16.21;70.04;100370.25;1021145;29;627;-70
2022/09/26 01:20:17;;;;;;;;;;;;;;;16.13;69.09;100375.47;1021073;29;682;-70
2022/09/26 01:21:08;;;;;;;;;;;;;;;15.90;69.83;100366.09;1021024;29;869;-70
2022/09/26 01:21:58;;;;;;;;;;;;;;;16.11;70.56;100371.28;1020520;29;693;-69
2022/09/26 01:22:49;;;;;;;;;;;;;;;16.20;69.96;100373.91;1021009;29;890;-70
2022/09/26 01:23:40;;;;;;;;;;;;;;;16.15;70.14;100365.44;1021085;29;713;-70
2022/09/26 01:24:31;;;;;;;;;;;;;;;16.16;69.78;100368.97;1020558;29;627;-70
2022/09/26 01:25:21;;;;;;;;;;;;;;;16.21;70.32;100362.16;1021074;29;643;-70
2022/09/26 01:26:11;;;;;;;;;;;;;;;16.10;68.66;100362.38;1021169;29;647;-70
2022/09/26 01:27:02;;;;;;;;;;;;;;;16.17;69.82;100355.38;1019467;29;627;-69
2022/09/26 01:27:52;;;;;;;;;;;;;;;16.22;69.78;100357.63;1021098;29;564;-69
2022/09/26 01:28:43;;;;;;;;;;;;;;;16.10;69.44;100351.63;1021079;29;607;-69
2022/09/26 01:29:33;;;;;;;;;;;;;;;16.09;69.50;100355.28;1019963;29;747;-70
2022/09/26 01:30:26;;;;;;;;;;;;;;;16.22;70.08;100346.88;1021120;29;639;-70
2022/09/26 01:31:17;;;;;;;;;;;;;;;16.14;70.36;100352.13;1021088;29;603;-70
2022/09/26 01:33:16;;;;;;;;;;;;;;;16.15;69.87;100343.94;1020408;29;645;-69
2022/09/26 01:34:07;;;;;;;;;;;;;;;16.20;69.96;100346.19;1020588;29;783;-70
2022/09/26 01:34:58;;;;;;;;;;;;;;;16.18;69.99;100342.78;1019658;29;675;-70
2022/09/26 01:35:48;;;;;;;;;;;;;;;16.20;70.32;100335.44;1017418;29;768;-69
2022/09/26 01:36:39;;;;;;;;;;;;;;;16.19;70.03;100334.59;1016868;29;635;-69
2022/09/26 01:37:29;;;;;;;;;;;;;;;16.07;69.76;100327.72;1020310;29;673;-69
2022/09/26 01:38:19;;;;;;;;;;;;;;;16.17;70.37;100328.50;1021060;29;690;-70
2022/09/26 01:39:10;;;;;;;;;;;;;;;16.26;69.89;100327.63;1020615;29;1428;-69
2022/09/26 01:40:01;;;;;;;;;;;;;;;16.24;70.10;100329.63;1020872;29;1583;-69
2022/09/26 01:40:51;;;;;;;;;;;;;;;16.28;69.37;100328.34;1021400;29;1706;-69
2022/09/26 01:41:42;;;;;;;;;;;;;;;16.21;69.84;100319.16;1020488;29;714;-69
2022/09/26 01:42:33;;;;;;;;;;;;;;;16.24;69.40;100318.88;1021146;29;667;-69
2022/09/26 01:43:23;;;;;;;;;;;;;;;16.14;68.85;100315.34;1020422;29;643;-70
2022/09/26 01:44:14;;;;;;;;;;;;;;;16.02;68.88;100323.75;1020574;29;636;-70
2022/09/26 01:45:05;;;;;;;;;;;;;;;16.08;70.21;100317.81;1021646;29;587;-71
2022/09/26 01:45:55;;;;;;;;;;;;;;;15.93;69.18;100320.13;1020477;29;671;-70
2022/09/26 01:46:46;;;;;;;;;;;;;;;16.07;70.36;100316.97;1019244;29;1289;-70
2022/09/26 01:47:36;;;;;;;;;;;;;;;16.13;69.97;100308.28;1016723;29;659;-70
2022/09/26 01:48:27;;;;;;;;;;;;;;;16.13;70.10;100316.34;1016677;29;678;-69
2022/09/26 01:49:17;;;;;;;;;;;;;;;16.22;70.25;100310.09;1016557;29;774;-70
2022/09/26 01:50:08;;;;;;;;;;;;;;;16.25;69.69;100308.94;1015986;29;1934;-69
2022/09/26 01:50:59;;;;;;;;;;;;;;;16.22;70.10;100299.34;1016106;29;643;-70
2022/09/26 01:51:49;;;;;;;;;;;;;;;16.20;69.10;100311.22;1016036;29;706;-69
2022/09/26 01:52:40;;;;;;;;;;;;;;;16.26;69.79;100303.44;1016525;29;691;-69
2022/09/26 01:53:30;;;;;;;;;;;;;;;16.26;69.47;100305.28;1016342;29;984;-70
2022/09/26 01:54:20;;;;;;;;;;;;;;;16.10;69.15;100305.91;1023461;29;667;-68
2022/09/26 01:55:11;;;;;;;;;;;;;;;16.04;70.16;100306.50;1024206;29;743;-70
2022/09/26 01:56:02;;;;;;;;;;;;;;;16.14;69.96;100303.75;1016874;29;573;-71
2022/09/26 01:56:52;;;;;;;;;;;;;;;16.22;69.87;100299.34;1016720;29;718;-70
2022/09/26 01:57:42;;;;;;;;;;;;;;;16.18;69.32;100306.00;1016598;29;647;-70
2022/09/26 01:58:33;;;;;;;;;;;;;;;16.08;69.43;100293.63;1016664;29;671;-71
2022/09/26 01:59:24;;;;;;;;;;;;;;;16.14;69.42;100295.69;1016674;29;714;-71
2022/09/26 02:00:14;;;;;;;;;;;;;;;16.01;70.13;100303.25;1015890;29;627;-70
2022/09/26 02:01:07;;;;;;;;;;;;;;;16.10;70.21;100291.63;1016556;29;706;-71
2022/09/26 02:01:58;;;;;;;;;;;;;;;15.95;69.19;100293.94;1018092;29;1603;-71
2022/09/26 02:02:48;;;;;;;;;;;;;;;15.90;69.74;100282.78;1021027;29;642;-70
2022/09/26 02:03:39;;;;;;;;;;;;;;;16.06;70.55;100282.16;1021072;29;611;-70
2022/09/26 02:04:29;;;;;;;;;;;;;;;16.12;69.96;100282.41;1020974;29;728;-70
2022/09/26 02:05:19;;;;;;;;;;;;;;;15.96;69.56;100279.50;1020925;29;632;-71
2022/09/26 02:06:10;;;;;;;;;;;;;;;16.01;69.62;100279.06;1020876;29;577;-71
2022/09/26 02:07:00;;;;;;;;;;;;;;;16.03;69.88;100272.53;1020836;29;616;-71
2022/09/26 02:07:51;;;;;;;;;;;;;;;16.15;70.13;100271.34;1020835;29;687;-71
2022/09/26 02:08:42;;;;;;;;;;;;;;;16.22;69.58;100266.22;1020452;29;706;-71
2022/09/26 02:09:32;;;;;;;;;;;;;;;16.15;69.94;100260.59;1020997;29;655;-71
2022/09/26 02:10:23;;;;;;;;;;;;;;;16.22;69.56;100259.00;1020733;29;1603;-71
2022/09/26 02:11:14;;;;;;;;;;;;;;;16.11;70.28;100256.53;1020592;29;639;-70
2022/09/26 02:12:05;;;;;;;;;;;;;;;16.21;69.85;100264.53;1020924;29;544;-71
2022/09/26 02:12:55;;;;;;;;;;;;;;;16.23;70.06;100251.78;1020455;29;671;-71
2022/09/26 02:13:45;;;;;;;;;;;;;;;16.27;69.89;100259.41;1020345;29;616;-70
2022/09/26 02:14:36;;;;;;;;;;;;;;;16.31;69.94;100246.50;1020420;29;628;-70
2022/09/26 02:15:26;;;;;;;;;;;;;;;16.25;69.92;100245.28;1020302;29;734;-69
2022/09/26 02:16:17;;;;;;;;;;;;;;;16.16;69.79;100246.16;1020386;29;600;-68
2022/09/26 02:17:07;;;;;;;;;;;;;;;16.08;70.06;100243.38;1020311;29;674;-70
2022/09/26 02:17:58;;;;;;;;;;;;;;;16.10;69.77;100236.03;1019941;29;950;-69
2022/09/26 02:18:48;;;;;;;;;;;;;;;16.11;70.38;100235.03;1020299;29;709;-69
2022/09/26 02:19:39;;;;;;;;;;;;;;;16.14;70.12;100234.72;1020956;29;666;-69
2022/09/26 02:20:29;;;;;;;;;;;;;;;16.14;69.36;100237.41;1020452;29;650;-69
2022/09/26 02:21:19;;;;;;;;;;;;;;;16.15;70.14;100230.19;1020866;29;622;-69
2022/09/26 02:22:10;;;;;;;;;;;;;;;16.07;69.92;100233.63;1020394;29;618;-69
2022/09/26 02:23:02;;;;;;;;;;;;;;;16.13;70.37;100238.38;1021561;29;589;-69
2022/09/26 02:23:53;;;;;;;;;;;;;;;16.21;69.96;100245.72;1021591;29;650;-69
2022/09/26 02:24:44;;;;;;;;;;;;;;;16.07;69.64;100235.47;1021482;29;912;-69
2022/09/26 02:25:36;;;;;;;;;;;;;;;16.13;70.17;100240.22;1021415;29;622;-69
2022/09/26 02:26:26;;;;;;;;;;;;;;;16.20;70.33;100236.81;1021452;29;603;-69
2022/09/26 02:27:17;;;;;;;;;;;;;;;16.26;69.67;100236.22;1020570;29;709;-70
2022/09/26 02:28:07;;;;;;;;;;;;;;;16.20;68.74;100235.97;1020336;29;643;-70
2022/09/26 02:28:58;;;;;;;;;;;;;;;16.04;68.77;100231.25;1020321;29;691;-69
2022/09/26 02:29:48;;;;;;;;;;;;;;;16.13;70.14;100237.53;1020271;29;1894;-71
2022/09/26 02:30:39;;;;;;;;;;;;;;;16.07;69.43;100238.16;1020289;29;655;-70
2022/09/26 02:31:29;;;;;;;;;;;;;;;16.14;70.47;100229.34;1020423;29;710;-70
2022/09/26 02:32:19;;;;;;;;;;;;;;;16.22;70.02;100231.28;1019421;29;1709;-70
2022/09/26 02:33:10;;;;;;;;;;;;;;;16.28;70.09;100222.63;1020932;29;650;-70
2022/09/26 02:34:00;;;;;;;;;;;;;;;16.24;69.92;100230.13;1020754;29;1611;-70
2022/09/26 02:34:51;;;;;;;;;;;;;;;16.23;69.54;100220.38;1020946;29;675;-70
2022/09/26 02:35:53;;;;;;;;;;;;;;;16.25;70.42;100229.13;1019535;29;693;-70
2022/09/26 02:36:45;;;;;;;;;;;;;;;16.26;70.02;100228.16;1020907;29;882;-71
2022/09/26 02:37:35;;;;;;;;;;;;;;;16.19;69.92;100213.59;1020526;29;566;-70
2022/09/26 02:38:26;;;;;;;;;;;;;;;16.08;70.44;100213.81;1020466;29;721;-69
2022/09/26 02:39:16;;;;;;;;;;;;;;;16.11;70.23;100210.84;1020922;29;677;-69
2022/09/26 02:40:07;;;;;;;;;;;;;;;16.05;69.25;100222.19;1020891;29;630;-69
2022/09/26 02:40:58;;;;;;;;;;;;;;;16.07;69.58;100212.13;1020919;29;662;-70
2022/09/26 02:41:49;;;;;;;;;;;;;;;16.15;70.57;100211.38;1019868;29;674;-70
2022/09/26 02:42:40;;;;;;;;;;;;;;;16.20;70.13;100209.06;1020389;29;639;-69
2022/09/26 02:43:30;;;;;;;;;;;;;;;16.16;70.17;100203.16;1020975;29;642;-70
2022/09/26 02:44:20;;;;;;;;;;;;;;;16.01;69.31;100207.34;1020795;29;694;-71
2022/09/26 02:45:11;;;;;;;;;;;;;;;16.11;70.16;100199.25;1019415;29;730;-70
2022/09/26 02:46:01;;;;;;;;;;;;;;;16.08;70.00;100199.53;1020881;29;667;-70
2022/09/26 02:46:52;;;;;;;;;;;;;;;16.11;70.02;100200.09;1020420;29;1293;-70
2022/09/26 02:47:43;;;;;;;;;;;;;;;16.13;70.61;100191.84;1019769;29;635;-70
2022/09/26 02:48:33;;;;;;;;;;;;;;;16.10;68.88;100192.19;1019854;29;694;-70
2022/09/26 02:49:24;;;;;;;;;;;;;;;16.08;70.57;100192.31;1019698;29;714;-70
2022/09/26 02:50:15;;;;;;;;;;;;;;;16.13;70.09;100197.22;1019729;29;702;-68
2022/09/26 02:51:06;;;;;;;;;;;;;;;16.06;70.11;100191.63;1019702;29;702;-70
2022/09/26 02:51:56;;;;;;;;;;;;;;;16.09;70.19;100190.47;1019903;29;782;-70
2022/09/26 02:52:47;;;;;;;;;;;;;;;16.09;69.97;100190.47;1023952;29;623;-71
2022/09/26 02:53:37;;;;;;;;;;;;;;;16.09;70.17;100183.25;1023554;29;674;-70
2022/09/26 02:54:28;;;;;;;;;;;;;;;15.99;69.53;100182.47;1021102;29;627;-69
2022/09/26 02:55:18;;;;;;;;;;;;;;;15.94;70.03;100184.78;1020915;29;635;-69
2022/09/26 02:56:08;;;;;;;;;;;;;;;15.83;70.05;100176.91;1019476;29;726;-70
2022/09/26 02:56:59;;;;;;;;;;;;;;;15.92;69.99;100178.69;1019985;29;691;-70
2022/09/26 02:57:49;;;;;;;;;;;;;;;15.92;69.56;100176.84;1020347;29;626;-70
2022/09/26 02:58:41;;;;;;;;;;;;;;;15.93;70.45;100181.25;1019730;29;675;-70
2022/09/26 02:59:33;;;;;;;;;;;;;;;15.89;69.30;100173.63;1012979;29;715;-70
2022/09/26 03:00:24;;;;;;;;;;;;;;;15.92;70.95;100171.47;1012576;29;675;-70
2022/09/26 03:01:14;;;;;;;;;;;;;;;16.06;70.40;100169.28;1018825;29;624;-70
2022/09/26 03:02:05;;;;;;;;;;;;;;;16.03;68.67;100165.03;1016146;29;654;-70
2022/09/26 03:02:55;;;;;;;;;;;;;;;16.12;70.10;100169.50;1009667;29;627;-70
2022/09/26 03:03:46;;;;;;;;;;;;;;;16.05;70.29;100160.38;1012000;29;1596;-70
2022/09/26 03:04:36;;;;;;;;;;;;;;;16.01;69.71;100161.66;1014656;29;615;-70
2022/09/26 03:05:27;;;;;;;;;;;;;;;16.03;69.56;100164.19;1014907;29;698;-70
2022/09/26 03:06:17;;;;;;;;;;;;;;;16.09;69.80;100159.06;1014173;29;651;-70
2022/09/26 03:07:08;;;;;;;;;;;;;;;15.92;69.08;100163.41;1014187;29;623;-70
2022/09/26 03:07:58;;;;;;;;;;;;;;;15.93;69.82;100157.06;1014205;29;643;-70
2022/09/26 03:08:49;;;;;;;;;;;;;;;15.89;69.68;100160.19;1021839;29;706;-70
2022/09/26 03:09:39;;;;;;;;;;;;;;;15.75;69.23;100147.25;1021802;29;662;-69
2022/09/26 03:10:29;;;;;;;;;;;;;;;15.72;68.89;100145.72;1014903;29;682;-70
2022/09/26 03:11:20;;;;;;;;;;;;;;;15.88;70.63;100145.91;1014063;29;726;-70
2022/09/26 03:12:10;;;;;;;;;;;;;;;15.96;70.46;100148.66;1014265;29;600;-70
2022/09/26 03:13:01;;;;;;;;;;;;;;;15.94;69.31;100145.28;1014902;29;658;-70
2022/09/26 03:13:51;;;;;;;;;;;;;;;15.71;70.28;100146.72;1014362;29;667;-69
2022/09/26 03:14:42;;;;;;;;;;;;;;;15.85;70.52;100135.44;1014723;29;603;-69
2022/09/26 03:15:32;;;;;;;;;;;;;;;15.82;70.18;100142.97;1013615;29;647;-69
2022/09/26 03:16:23;;;;;;;;;;;;;;;16.01;69.92;100144.69;1014206;29;597;-70
2022/09/26 03:17:13;;;;;;;;;;;;;;;15.80;67.99;100137.75;1014116;29;737;-70
2022/09/26 03:18:03;;;;;;;;;;;;;;;15.94;70.14;100137.22;1014215;29;722;-70
2022/09/26 03:18:54;;;;;;;;;;;;;;;15.92;70.33;100124.97;1021813;29;662;-70
2022/09/26 03:19:44;;;;;;;;;;;;;;;15.97;69.03;100136.91;1021719;29;714;-70
2022/09/26 03:20:35;;;;;;;;;;;;;;;15.79;70.30;100129.81;1014754;29;623;-69
2022/09/26 03:21:26;;;;;;;;;;;;;;;15.76;70.04;100135.53;1014196;29;632;-69
2022/09/26 03:22:16;;;;;;;;;;;;;;;15.89;70.52;100131.47;1014087;29;658;-70
2022/09/26 03:23:07;;;;;;;;;;;;;;;15.88;68.73;100131.63;1014171;29;678;-69
2022/09/26 03:23:58;;;;;;;;;;;;;;;15.86;70.49;100134.47;1014185;29;711;-69
2022/09/26 03:24:48;;;;;;;;;;;;;;;15.99;70.11;100126.03;1014048;29;702;-71
2022/09/26 03:25:39;;;;;;;;;;;;;;;15.97;69.66;100123.47;1014144;29;747;-71
2022/09/26 03:26:30;;;;;;;;;;;;;;;15.82;69.98;100114.25;1014821;29;615;-71
2022/09/26 03:27:20;;;;;;;;;;;;;;;15.93;69.70;100116.75;1014094;29;616;-70
2022/09/26 03:28:11;;;;;;;;;;;;;;;15.92;70.02;100123.13;1021804;29;663;-69
2022/09/26 03:29:02;;;;;;;;;;;;;;;15.87;69.39;100119.19;1021681;29;643;-70
2022/09/26 03:29:53;;;;;;;;;;;;;;;15.97;70.26;100109.19;1017748;29;1895;-69
2022/09/26 03:30:43;;;;;;;;;;;;;;;15.99;69.72;100112.59;1017839;29;671;-69
2022/09/26 03:31:33;;;;;;;;;;;;;;;15.97;69.45;100112.72;1014614;29;1604;-69
2022/09/26 03:32:24;;;;;;;;;;;;;;;15.96;69.39;100115.56;1010283;29;598;-69
2022/09/26 03:33:14;;;;;;;;;;;;;;;15.86;69.06;100104.06;1009693;29;607;-69
2022/09/26 03:34:05;;;;;;;;;;;;;;;15.91;68.89;100108.00;1009180;29;663;-69
2022/09/26 03:34:56;;;;;;;;;;;;;;;15.73;68.89;100098.22;1009775;29;692;-69
2022/09/26 03:35:46;;;;;;;;;;;;;;;15.82;69.91;100099.97;1010210;29;656;-70
2022/09/26 03:36:37;;;;;;;;;;;;;;;15.95;70.20;100100.44;1009717;29;675;-70
2022/09/26 03:37:28;;;;;;;;;;;;;;;15.87;68.82;100097.69;1010248;29;679;-70
2022/09/26 03:38:18;;;;;;;;;;;;;;;15.78;69.17;100093.22;1009628;29;706;-70
2022/09/26 03:39:09;;;;;;;;;;;;;;;15.81;69.46;100093.75;1009723;29;596;-70
2022/09/26 03:39:59;;;;;;;;;;;;;;;15.93;70.02;100094.41;1010075;29;1612;-70
2022/09/26 03:40:50;;;;;;;;;;;;;;;15.96;69.88;100091.38;1010275;29;630;-70
2022/09/26 03:41:41;;;;;;;;;;;;;;;15.99;70.22;100088.41;1009725;29;746;-70
2022/09/26 03:42:32;;;;;;;;;;;;;;;16.07;69.33;100093.03;1010059;29;836;-70
2022/09/26 03:43:23;;;;;;;;;;;;;;;15.92;70.10;100081.97;1009864;29;691;-70
2022/09/26 03:44:13;;;;;;;;;;;;;;;16.03;69.69;100079.03;1013135;29;1601;-70
2022/09/26 03:45:03;;;;;;;;;;;;;;;15.98;68.99;100084.88;1014208;29;679;-70
2022/09/26 03:45:54;;;;;;;;;;;;;;;16.07;69.30;100083.13;1014138;29;710;-70
2022/09/26 03:46:46;;;;;;;;;;;;;;;16.08;69.88;100079.44;1013849;29;1243;-70
2022/09/26 03:47:40;;;;;;;;;;;;;;;16.05;69.83;100078.88;1013116;29;667;-70
2022/09/26 03:48:31;;;;;;;;;;;;;;;16.08;69.73;100075.91;1016595;29;655;-71
2022/09/26 03:49:21;;;;;;;;;;;;;;;16.04;69.90;100078.03;1016716;29;667;-71
2022/09/26 03:50:13;;;;;;;;;;;;;;;16.00;70.21;100084.72;1012619;29;1895;-70
2022/09/26 03:51:04;;;;;;;;;;;;;;;15.86;69.17;100075.34;1012509;29;569;-70
2022/09/26 03:51:54;;;;;;;;;;;;;;;15.83;68.76;100061.38;1013180;29;747;-70
2022/09/26 03:52:45;;;;;;;;;;;;;;;15.98;70.40;100065.22;1012445;29;640;-70
2022/09/26 03:53:35;;;;;;;;;;;;;;;15.96;68.36;100064.50;1012658;29;656;-69
2022/09/26 03:54:26;;;;;;;;;;;;;;;15.75;69.25;100061.31;1013062;29;616;-70
2022/09/26 03:55:17;;;;;;;;;;;;;;;15.84;70.01;100063.06;1012972;29;628;-69
2022/09/26 03:56:07;;;;;;;;;;;;;;;15.64;67.68;100056.97;1013074;29;744;-70
2022/09/26 03:56:57;;;;;;;;;;;;;;;15.54;69.12;100051.63;1012970;29;651;-70
2022/09/26 03:57:48;;;;;;;;;;;;;;;15.75;70.59;100047.88;1012944;29;541;-70
2022/09/26 03:58:38;;;;;;;;;;;;;;;15.87;70.07;100057.38;1012713;29;656;-70
2022/09/26 03:59:29;;;;;;;;;;;;;;;16.00;70.04;100057.00;1012975;29;643;-70
2022/09/26 04:00:19;;;;;;;;;;;;;;;16.04;69.49;100045.78;1013061;29;664;-70
2022/09/26 04:01:10;;;;;;;;;;;;;;;16.09;69.21;100051.56;1012832;29;586;-70
2022/09/26 04:02:00;;;;;;;;;;;;;;;16.04;67.70;100039.56;1012326;29;1717;-70
2022/09/26 04:02:50;;;;;;;;;;;;;;;16.08;69.24;100038.28;1013454;29;785;-69
2022/09/26 04:03:41;;;;;;;;;;;;;;;16.09;69.84;100039.97;1012874;29;1650;-70
2022/09/26 04:04:32;;;;;;;;;;;;;;;15.99;67.64;100045.41;1013112;29;669;-70
2022/09/26 04:05:22;;;;;;;;;;;;;;;15.95;68.74;100033.25;1013410;29;719;-72
2022/09/26 04:06:14;;;;;;;;;;;;;;;15.85;68.82;100037.88;1012917;29;616;-70
2022/09/26 04:07:04;;;;;;;;;;;;;;;15.65;68.66;100039.00;1013550;29;636;-70
2022/09/26 04:07:54;;;;;;;;;;;;;;;15.76;69.60;100033.44;1012935;29;564;-70
2022/09/26 04:08:45;;;;;;;;;;;;;;;15.74;69.67;100030.06;1013056;29;620;-71
2022/09/26 04:09:35;;;;;;;;;;;;;;;15.85;69.45;100027.13;1013422;29;757;-69
2022/09/26 04:10:26;;;;;;;;;;;;;;;15.83;69.08;100035.34;1012977;29;536;-70
2022/09/26 04:11:18;;;;;;;;;;;;;;;15.89;69.84;100025.84;1012920;29;627;-70
2022/09/26 04:12:08;;;;;;;;;;;;;;;15.99;69.82;100021.22;1013516;29;670;-70
2022/09/26 04:12:58;;;;;;;;;;;;;;;16.05;69.65;100028.66;1012939;29;703;-70
2022/09/26 04:13:49;;;;;;;;;;;;;;;15.98;69.28;100008.78;1012449;29;611;-70
2022/09/26 04:14:41;;;;;;;;;;;;;;;16.08;70.00;100014.09;1012987;29;682;-70
2022/09/26 04:15:32;;;;;;;;;;;;;;;16.08;69.29;100014.94;1013318;29;1027;-69
2022/09/26 04:16:22;;;;;;;;;;;;;;;16.14;69.46;100013.44;1013607;29;697;-68
2022/09/26 04:17:13;;;;;;;;;;;;;;;15.91;67.02;100010.41;1014062;29;643;-70
2022/09/26 04:18:03;;;;;;;;;;;;;;;15.89;70.10;100007.03;1014003;29;686;-69
2022/09/26 04:18:55;;;;;;;;;;;;;;;15.96;69.41;100005.41;1014071;29;658;-69
2022/09/26 04:19:45;;;;;;;;;;;;;;;15.93;68.08;99997.66;1013468;29;806;-69
2022/09/26 04:20:36;;;;;;;;;;;;;;;15.92;69.93;99995.97;1014070;29;626;-70
2022/09/26 04:21:27;;;;;;;;;;;;;;;15.97;69.88;99999.03;1013423;29;710;-69
2022/09/26 04:22:17;;;;;;;;;;;;;;;15.95;69.78;99995.63;1014022;29;634;-70
2022/09/26 04:23:08;;;;;;;;;;;;;;;15.81;68.61;99994.34;1013955;29;693;-69
2022/09/26 04:23:58;;;;;;;;;;;;;;;15.96;69.52;99989.28;1014028;29;689;-70
2022/09/26 04:24:50;;;;;;;;;;;;;;;15.95;69.38;99990.25;1014042;29;607;-70
2022/09/26 04:25:40;;;;;;;;;;;;;;;15.88;68.92;99989.22;1013451;29;655;-70
2022/09/26 04:26:31;;;;;;;;;;;;;;;15.86;68.75;99986.69;1013958;29;608;-70
2022/09/26 04:27:21;;;;;;;;;;;;;;;15.87;69.06;99984.84;1013902;29;626;-70